Aeroporto :
LOGIN :

Iscrizione | Disclaimer

   EN    FR    IT 

 










Sommario :    VFR   VFR Marginale   IFR   IFR Intensivo   IFR Molto Intensivo
Visibilità : 
Base nubi : 
>= 8 km
>= 3000ft
5 / 8 km
1000 / 3000 ft
1500m / 5 km
500 / 1000 ft
800 / 1500m
200 / 500 ft
< 800m
< 200 ft
Simboli :   Temporali  Nebbia  Neve Forte  Precipitazioni Forti  Vento > 20 kt
SIGMETs :   Varie  Temporali  Ghiacco  Turbolenza  Onda orograficha  Ceneri Vulcaniche







- Altitudine del aeroporto : 336 ft
- Codice IATA : GCI
- Carte del aeroporto


EGJB - Guernsey

ULTIMO METAR :
  • 240850Z 32008KT 270V350 9999 FEW006 14/10 Q1020

METARs OBSOLETI :
  • 240820Z 31010KT CAVOK 13/09 Q1020
  • 240750Z 32011KT CAVOK 13/10 Q1019
  • 240720Z 32007KT 290V360 CAVOK 12/10 Q1019
  • 240650Z 31009KT CAVOK 12/10 Q1019
  • 240620Z 32008KT 270V350 CAVOK 12/10 Q1019

TAF TAF EGJB
Valido dal 24 a 09 ore il 24 a 18 ore UTC


240800Z 2409/2418 29010KT 9999 FEW012 SCT048
PROB30
TEMPO 2409/2418 4000 BR BKN004
ATIS : +44 1481 238 957
Nessun NOTAM noto per questo aeroporto.
1 SIGMET conosciuto per la FIR Brest (LFRR) :
 
Turbolenza severa
LFRR SIGMET 1 VALID 240800/241200 LFPW
LFRR BREST FIR/UIR SEV TURB FCST SE OF LINE N4430 W00145 - N4345 W00230 FL260/340 STNR NC=



MetMap, La meteo Aeronautica in un colpo d'occhio ! - Copyright ORBIFLY Dicembre 2007 - Disclaimer

ORBIFLY MET'MAP TEAM :

Programmazione e sviluppo : Alexandra Zaïnal
Concezione e sviluppo : Baudouin d'Aumeries
Co-Programmazione e sviluppo : Marc-Olivier Méhu
Supporto tecnico e logistico : Manuel Goepfert
Aiuto per la traduzione : Arnaldo La Scala

Contatto : metmap@orbifly.com




FONTI E CREDITI :

   NOAA